createdAt,value
2019-01-30T00:02:14.460Z,90.30
2019-01-30T00:04:44.085Z,90.30
2019-01-30T00:07:13.857Z,90.20
2019-01-30T00:09:43.477Z,90.60
2019-01-30T00:12:13.287Z,90.30
2019-01-30T00:14:42.891Z,90.20
2019-01-30T00:17:12.539Z,90.20
2019-01-30T00:19:42.152Z,90.20
2019-01-30T00:22:12.218Z,90.50
2019-01-30T00:24:42.133Z,90.20
2019-01-30T00:27:11.752Z,90.10
2019-01-30T00:29:41.369Z,90.10
2019-01-30T00:32:11.623Z,90.10
2019-01-30T00:34:41.236Z,90.20
2019-01-30T00:37:11.117Z,90.20
2019-01-30T00:39:40.753Z,90.20
2019-01-30T00:42:10.758Z,90.20
2019-01-30T00:44:40.381Z,90.30
2019-01-30T00:47:15.874Z,90.10
2019-01-30T00:49:41.877Z,90.20
2019-01-30T00:52:11.856Z,90.00
2019-01-30T00:54:41.469Z,90.00
2019-01-30T00:57:11.096Z,90.00
2019-01-30T00:59:40.700Z,90.00
2019-01-30T01:02:10.546Z,90.00
2019-01-30T01:04:40.414Z,90.00
2019-01-30T01:07:10.151Z,90.00
2019-01-30T01:09:39.797Z,90.10
2019-01-30T01:12:09.479Z,90.10
2019-01-30T01:14:39.108Z,90.10
2019-01-30T01:17:08.976Z,90.20
2019-01-30T01:19:38.595Z,90.30
2019-01-30T01:22:08.614Z,90.30
2019-01-30T01:24:38.249Z,90.20
2019-01-30T01:27:08.232Z,90.30
2019-01-30T01:29:37.854Z,90.20
2019-01-30T01:32:07.772Z,90.20
2019-01-30T01:34:37.400Z,90.20
2019-01-30T01:37:07.329Z,90.20
2019-01-30T01:39:36.955Z,90.20
2019-01-30T01:42:06.990Z,90.20
2019-01-30T01:44:36.609Z,90.20
2019-01-30T01:47:06.541Z,90.20
2019-01-30T01:49:36.404Z,90.10
2019-01-30T01:52:06.372Z,90.10
2019-01-30T01:54:36.301Z,90.10
2019-01-30T01:57:05.993Z,90.20
2019-01-30T01:59:35.621Z,90.10
2019-01-30T02:02:05.477Z,90.10
2019-01-30T02:04:35.109Z,90.20
2019-01-30T02:07:04.957Z,90.10
2019-01-30T02:09:34.651Z,90.10
2019-01-30T02:12:04.612Z,90.30
2019-01-30T02:14:35.297Z,90.20
2019-01-30T02:17:05.144Z,90.20
2019-01-30T02:19:34.920Z,89.80
2019-01-30T02:22:04.638Z,90.20
2019-01-30T02:24:35.379Z,90.10
2019-01-30T02:27:05.497Z,90.00
2019-01-30T02:29:35.136Z,90.00
2019-01-30T02:32:05.338Z,90.10
2019-01-30T02:34:35.049Z,90.10
2019-01-30T02:37:04.735Z,90.00
2019-01-30T02:39:34.386Z,90.10
2019-01-30T02:42:04.645Z,90.10
2019-01-30T02:44:34.265Z,90.20
2019-01-30T02:47:04.063Z,90.00
2019-01-30T02:49:34.157Z,90.10
2019-01-30T02:52:04.444Z,90.10
2019-01-30T02:54:34.056Z,90.20
2019-01-30T02:57:03.952Z,90.10
2019-01-30T02:59:33.579Z,90.10
2019-01-30T03:02:21.664Z,90.10
2019-01-30T03:04:51.280Z,90.10
2019-01-30T03:07:20.893Z,90.20
2019-01-30T03:09:50.699Z,90.10
2019-01-30T03:12:20.635Z,90.10
2019-01-30T03:14:50.256Z,90.20
2019-01-30T03:17:19.869Z,90.20
2019-01-30T03:19:49.801Z,90.20
2019-01-30T03:22:19.426Z,90.10
2019-01-30T03:24:49.043Z,90.00
2019-01-30T03:27:18.719Z,90.10
2019-01-30T03:29:48.364Z,90.00
2019-01-30T03:32:18.026Z,90.10
2019-01-30T03:34:47.642Z,90.10
2019-01-30T03:37:17.333Z,90.10
2019-01-30T03:39:46.974Z,90.10
2019-01-30T03:42:17.032Z,90.20
2019-01-30T03:44:46.654Z,90.10
2019-01-30T03:47:16.615Z,90.20
2019-01-30T03:49:46.238Z,90.20
2019-01-30T03:52:15.867Z,90.20
2019-01-30T03:54:45.716Z,90.20
2019-01-30T03:57:15.437Z,90.20
2019-01-30T03:59:45.035Z,90.20
2019-01-30T04:02:14.651Z,90.10
2019-01-30T04:04:44.635Z,90.10
2019-01-30T04:07:14.829Z,90.40
2019-01-30T04:09:44.441Z,90.20
2019-01-30T04:12:14.379Z,90.00
2019-01-30T04:14:43.993Z,90.00
2019-01-30T04:17:13.624Z,90.10
2019-01-30T04:19:43.233Z,90.00
2019-01-30T04:22:12.857Z,89.90
2019-01-30T04:24:42.516Z,90.00
2019-01-30T04:27:12.185Z,90.00
2019-01-30T04:29:42.123Z,90.00
2019-01-30T04:32:11.745Z,90.00
2019-01-30T04:34:41.370Z,90.00
2019-01-30T04:37:11.066Z,90.00
2019-01-30T04:39:41.252Z,90.00
2019-01-30T04:42:11.402Z,90.10
2019-01-30T04:44:41.014Z,90.10
2019-01-30T04:47:10.652Z,90.00
2019-01-30T04:49:40.550Z,90.00
2019-01-30T04:52:10.173Z,90.00
2019-01-30T04:54:40.175Z,90.20
2019-01-30T04:57:10.413Z,90.30
2019-01-30T04:59:40.026Z,90.30
2019-01-30T05:02:09.640Z,90.20
2019-01-30T05:04:39.290Z,90.30
2019-01-30T05:07:08.978Z,90.30
2019-01-30T05:09:38.605Z,90.20
2019-01-30T05:12:08.229Z,90.20
2019-01-30T05:14:37.844Z,90.50
2019-01-30T05:17:07.585Z,90.10
2019-01-30T05:19:37.443Z,90.00
2019-01-30T05:22:07.361Z,90.20
2019-01-30T05:24:36.980Z,90.20
2019-01-30T05:27:07.044Z,90.20
2019-01-30T05:29:36.708Z,90.10
2019-01-30T05:32:06.492Z,90.20
2019-01-30T05:34:36.173Z,90.30
2019-01-30T05:37:05.789Z,90.30
2019-01-30T05:39:47.624Z,90.30
2019-01-30T05:42:17.506Z,89.30
2019-01-30T05:44:48.360Z,90.20
2019-01-30T05:47:18.465Z,90.20
2019-01-30T05:49:48.325Z,90.30
2019-01-30T05:52:18.289Z,90.20
2019-01-30T05:54:48.234Z,90.10
2019-01-30T05:57:17.854Z,90.10
2019-01-30T05:59:47.539Z,90.10
2019-01-30T06:02:17.145Z,90.00
2019-01-30T06:04:46.773Z,90.10
2019-01-30T06:07:16.386Z,90.20
2019-01-30T06:09:46.115Z,90.20
2019-01-30T06:12:15.724Z,90.20
2019-01-30T06:14:45.634Z,90.10
2019-01-30T06:17:15.495Z,90.20
2019-01-30T06:19:45.234Z,90.20
2019-01-30T06:22:14.843Z,90.20
2019-01-30T06:24:44.783Z,90.20
2019-01-30T06:27:14.474Z,90.30
2019-01-30T06:29:44.176Z,90.20
2019-01-30T06:32:21.663Z,90.20
2019-01-30T06:34:46.277Z,90.20
2019-01-30T06:37:18.246Z,90.20
2019-01-30T06:39:47.242Z,90.20
2019-01-30T06:42:16.943Z,90.50
2019-01-30T06:44:46.832Z,90.10
2019-01-30T06:47:16.670Z,90.10
2019-01-30T06:49:46.309Z,90.20
2019-01-30T06:52:16.189Z,90.20
2019-01-30T06:54:45.886Z,90.20
2019-01-30T06:57:15.621Z,90.20
2019-01-30T06:59:46.331Z,90.10
2019-01-30T07:02:16.008Z,90.20
2019-01-30T07:04:45.971Z,90.20
2019-01-30T07:07:15.668Z,90.20
2019-01-30T07:09:46.002Z,90.20
2019-01-30T07:12:15.941Z,90.20
2019-01-30T07:14:45.563Z,90.30
2019-01-30T07:17:15.185Z,90.20
2019-01-30T07:19:44.845Z,90.20
2019-01-30T07:22:14.482Z,90.20
2019-01-30T07:24:44.089Z,90.20
2019-01-30T07:27:13.797Z,90.20
2019-01-30T07:29:43.421Z,90.00
2019-01-30T07:32:13.126Z,90.10
2019-01-30T07:34:43.000Z,90.00
2019-01-30T07:37:12.746Z,90.00
2019-01-30T07:39:42.433Z,90.00
2019-01-30T07:42:12.123Z,90.00
2019-01-30T07:44:50.550Z,90.00
2019-01-30T07:47:13.148Z,90.00
2019-01-30T07:49:43.122Z,90.00
2019-01-30T07:52:12.990Z,90.00
2019-01-30T07:54:42.947Z,89.90
2019-01-30T07:57:12.571Z,89.90
2019-01-30T07:59:42.505Z,89.90
2019-01-30T08:02:12.217Z,89.90
2019-01-30T08:04:42.170Z,89.70
2019-01-30T08:07:11.941Z,89.80
2019-01-30T08:09:41.674Z,89.60
2019-01-30T08:12:12.626Z,89.60
2019-01-30T08:14:42.401Z,89.50
2019-01-30T08:17:12.043Z,89.70
2019-01-30T08:19:41.662Z,89.70
2019-01-30T08:22:11.522Z,89.60
2019-01-30T08:24:41.734Z,89.70
2019-01-30T08:27:11.588Z,89.30
2019-01-30T08:29:41.660Z,90.00
2019-01-30T08:32:30.640Z,89.50
2019-01-30T08:35:00.397Z,87.60
2019-01-30T08:37:30.178Z,89.30
2019-01-30T08:40:11.909Z,89.30
2019-01-30T08:42:41.771Z,89.30
2019-01-30T08:45:14.977Z,89.50
2019-01-30T08:47:44.673Z,89.40
2019-01-30T08:50:14.837Z,89.10
2019-01-30T08:52:44.518Z,89.30
2019-01-30T08:55:14.752Z,89.30
2019-01-30T08:57:45.415Z,89.20
2019-01-30T09:00:17.495Z,89.20
2019-01-30T09:02:47.376Z,88.80
2019-01-30T09:05:17.785Z,88.60
2019-01-30T09:07:47.477Z,89.00
2019-01-30T09:10:21.320Z,88.90
2019-01-30T09:12:51.165Z,89.00
2019-01-30T09:15:21.858Z,88.70
2019-01-30T09:17:51.612Z,88.90
2019-01-30T09:20:22.736Z,88.80
2019-01-30T09:22:52.723Z,87.90
2019-01-30T09:25:24.392Z,88.40
2019-01-30T09:27:54.137Z,88.60
2019-01-30T09:30:35.208Z,88.20
2019-01-30T09:33:06.325Z,88.80
2019-01-30T09:35:36.274Z,88.10
2019-01-30T09:38:06.256Z,87.70
2019-01-30T09:40:36.176Z,88.00
2019-01-30T09:43:05.979Z,87.90
2019-01-30T09:45:35.672Z,87.90
2019-01-30T09:48:06.521Z,87.90
2019-01-30T09:50:36.330Z,87.70
2019-01-30T09:53:06.246Z,87.50
2019-01-30T09:55:35.876Z,87.10
2019-01-30T09:58:05.897Z,87.40
2019-01-30T10:00:36.652Z,87.80
2019-01-30T10:03:06.765Z,87.50
2019-01-30T10:05:36.525Z,87.20
2019-01-30T10:08:07.589Z,87.10
2019-01-30T10:10:38.683Z,86.70
2019-01-30T10:13:08.872Z,87.40
2019-01-30T10:15:40.533Z,86.70
2019-01-30T10:18:11.393Z,87.10
2019-01-30T10:20:41.803Z,86.70
2019-01-30T10:23:11.483Z,86.50
2019-01-30T10:25:42.155Z,87.10
2019-01-30T10:28:16.633Z,86.50
2019-01-30T10:30:44.632Z,86.70
2019-01-30T10:33:14.769Z,86.70
2019-01-30T10:35:44.769Z,86.20
2019-01-30T10:38:15.608Z,86.70
2019-01-30T10:40:46.374Z,85.70
2019-01-30T10:43:16.493Z,86.20
2019-01-30T10:45:46.192Z,85.60
2019-01-30T10:48:16.768Z,85.60
2019-01-30T10:50:47.097Z,85.80
2019-01-30T10:53:17.044Z,85.00
2019-01-30T10:55:46.810Z,85.00
2019-01-30T10:58:18.049Z,85.20
2019-01-30T11:00:49.778Z,84.60
2019-01-30T11:03:20.006Z,85.80
2019-01-30T11:05:49.793Z,84.80
2019-01-30T11:08:19.713Z,84.90
2019-01-30T11:10:51.002Z,83.20
2019-01-30T11:13:20.773Z,83.60
2019-01-30T11:15:50.509Z,84.80
2019-01-30T11:18:20.656Z,84.40
2019-01-30T11:20:50.312Z,84.70
2019-01-30T11:23:19.928Z,84.40
2019-01-30T11:25:50.274Z,84.20
2019-01-30T11:28:19.920Z,83.40
2019-01-30T11:30:49.676Z,82.80
2019-01-30T11:33:19.803Z,83.80
2019-01-30T11:35:49.511Z,83.40
2019-01-30T11:38:19.131Z,83.20
2019-01-30T11:40:48.925Z,83.50
2019-01-30T11:43:18.552Z,82.20
2019-01-30T11:45:48.236Z,81.80
2019-01-30T11:48:18.484Z,82.40
2019-01-30T11:50:48.399Z,82.10
2019-01-30T11:53:18.088Z,81.70
2019-01-30T11:55:47.996Z,81.20
2019-01-30T11:58:17.935Z,80.90
2019-01-30T12:01:03.367Z,79.30
2019-01-30T12:03:32.746Z,80.70
2019-01-30T12:06:02.539Z,80.70
2019-01-30T12:08:32.410Z,81.00
2019-01-30T12:11:02.030Z,81.00
2019-01-30T12:13:31.665Z,80.60
2019-01-30T12:16:01.707Z,80.80
2019-01-30T12:18:31.461Z,79.20
2019-01-30T12:21:01.079Z,79.50
2019-01-30T12:23:30.683Z,78.30
2019-01-30T12:26:00.303Z,79.00
2019-01-30T12:28:29.921Z,78.90
2019-01-30T12:30:59.613Z,78.90
2019-01-30T12:33:29.633Z,77.20
2019-01-30T12:35:59.511Z,78.60
2019-01-30T12:38:29.161Z,78.10
2019-01-30T12:40:59.076Z,78.40
2019-01-30T12:43:28.688Z,78.10
2019-01-30T12:45:58.309Z,78.70
2019-01-30T12:48:28.581Z,78.40
2019-01-30T12:50:58.757Z,78.00
2019-01-30T12:53:28.369Z,78.50
2019-01-30T12:55:58.052Z,77.00
2019-01-30T12:58:27.908Z,78.80
2019-01-30T13:00:57.521Z,76.40
2019-01-30T13:03:27.137Z,77.70
2019-01-30T13:05:56.796Z,77.50
2019-01-30T13:08:26.643Z,77.50
2019-01-30T13:10:56.830Z,77.40
2019-01-30T13:13:26.438Z,78.10
2019-01-30T13:15:56.129Z,77.00
2019-01-30T13:18:26.193Z,77.30
2019-01-30T13:20:55.804Z,76.20
2019-01-30T13:23:25.505Z,76.50
2019-01-30T13:25:55.280Z,77.60
2019-01-30T13:28:25.162Z,77.60
2019-01-30T13:30:54.789Z,76.60
2019-01-30T13:33:24.566Z,76.00
2019-01-30T13:35:54.248Z,76.50
2019-01-30T13:38:24.162Z,76.90
2019-01-30T13:40:53.816Z,76.60
2019-01-30T13:43:23.574Z,75.50
2019-01-30T13:45:53.308Z,76.70
2019-01-30T13:48:23.133Z,76.50
2019-01-30T13:50:52.843Z,77.30
2019-01-30T13:53:22.454Z,75.60
2019-01-30T13:55:52.489Z,74.70
2019-01-30T13:58:22.496Z,75.50
2019-01-30T14:00:52.112Z,75.80
2019-01-30T14:03:21.861Z,74.30
2019-01-30T14:05:51.808Z,75.00
2019-01-30T14:08:21.421Z,74.80
2019-01-30T14:10:51.013Z,74.90
2019-01-30T14:13:20.713Z,73.20
2019-01-30T14:15:50.713Z,74.10
2019-01-30T14:18:20.438Z,72.70
2019-01-30T14:20:50.129Z,73.30
2019-01-30T14:23:20.239Z,73.60
2019-01-30T14:25:49.929Z,73.40
2019-01-30T14:28:19.831Z,72.10
2019-01-30T14:30:49.445Z,73.30
2019-01-30T14:33:19.150Z,73.50
2019-01-30T14:35:48.936Z,73.00
2019-01-30T14:38:18.712Z,74.30
2019-01-30T14:40:48.597Z,72.90
2019-01-30T14:43:18.278Z,73.30
2019-01-30T14:45:47.954Z,73.60
2019-01-30T14:48:18.545Z,73.70
2019-01-30T14:50:48.198Z,73.20
2019-01-30T14:53:17.846Z,73.70
2019-01-30T14:55:47.631Z,71.80
2019-01-30T14:58:17.383Z,72.20
2019-01-30T15:00:47.075Z,73.20
2019-01-30T15:03:16.881Z,72.80
2019-01-30T15:05:46.900Z,73.40
2019-01-30T15:08:16.772Z,72.80
2019-01-30T15:10:46.372Z,72.90
2019-01-30T15:13:16.069Z,71.50
2019-01-30T15:15:45.683Z,72.60
2019-01-30T15:18:15.364Z,72.00
2019-01-30T15:20:45.132Z,72.30
2019-01-30T15:23:14.806Z,72.20
2019-01-30T15:25:44.481Z,72.50
2019-01-30T15:28:14.110Z,72.10
2019-01-30T15:30:46.150Z,72.60
2019-01-30T15:33:16.030Z,72.00
2019-01-30T15:35:45.903Z,72.80
2019-01-30T15:38:20.511Z,72.50
2019-01-30T15:40:48.961Z,73.40
2019-01-30T15:43:19.624Z,73.10
2019-01-30T15:45:49.485Z,72.50
2019-01-30T15:48:19.983Z,73.40
2019-01-30T15:50:49.936Z,73.80
2019-01-30T15:53:21.825Z,73.70
2019-01-30T15:55:51.731Z,73.80
2019-01-30T15:58:22.119Z,74.60
2019-01-30T16:01:21.577Z,74.20
2019-01-30T16:03:51.195Z,73.80
2019-01-30T16:06:20.804Z,74.50
2019-01-30T16:08:50.519Z,74.00
2019-01-30T16:11:20.124Z,75.00
2019-01-30T16:13:49.976Z,75.00
2019-01-30T16:16:20.160Z,75.20
2019-01-30T16:18:49.852Z,75.10
2019-01-30T16:21:19.469Z,74.90
2019-01-30T16:23:49.085Z,75.30
2019-01-30T16:26:18.933Z,75.20
2019-01-30T16:28:48.640Z,74.70
2019-01-30T16:31:18.318Z,75.50
2019-01-30T16:33:48.957Z,75.70
2019-01-30T16:36:19.168Z,75.40
2019-01-30T16:38:49.021Z,75.60
2019-01-30T16:41:18.713Z,75.30
2019-01-30T16:43:48.388Z,75.70
2019-01-30T16:46:18.116Z,76.00
2019-01-30T16:48:47.704Z,75.70
2019-01-30T16:51:17.437Z,76.00
2019-01-30T16:53:47.044Z,75.90
2019-01-30T16:56:16.643Z,76.00
2019-01-30T16:58:46.350Z,76.20
2019-01-30T17:01:17.597Z,76.10
2019-01-30T17:03:47.279Z,76.10
2019-01-30T17:06:17.255Z,76.00
2019-01-30T17:08:46.868Z,76.10
2019-01-30T17:11:16.489Z,76.10
2019-01-30T17:13:46.257Z,76.10
2019-01-30T17:16:16.942Z,76.10
2019-01-30T17:18:46.821Z,75.30
2019-01-30T17:21:16.764Z,76.00
2019-01-30T17:23:46.676Z,76.10
2019-01-30T17:26:16.377Z,76.10
2019-01-30T17:28:45.984Z,76.00
2019-01-30T17:31:22.265Z,77.20
2019-01-30T17:33:52.162Z,76.20
2019-01-30T17:36:21.854Z,76.30
2019-01-30T17:38:51.477Z,76.80
2019-01-30T17:41:21.280Z,76.40
2019-01-30T17:43:51.260Z,76.20
2019-01-30T17:46:21.192Z,76.50
2019-01-30T17:48:51.764Z,76.60
2019-01-30T17:51:21.528Z,76.80
2019-01-30T17:53:51.176Z,76.80
2019-01-30T17:56:20.875Z,76.40
2019-01-30T17:58:50.529Z,76.50
2019-01-30T18:01:20.450Z,76.50
2019-01-30T18:03:51.031Z,76.80
2019-01-30T18:06:29.502Z,76.30
2019-01-30T18:08:52.029Z,76.00
2019-01-30T18:11:21.729Z,76.00
2019-01-30T18:13:51.665Z,75.90
2019-01-30T18:16:21.392Z,75.80
2019-01-30T18:18:51.261Z,75.90
2019-01-30T18:21:21.041Z,75.90
2019-01-30T18:23:50.800Z,76.30
2019-01-30T18:26:20.518Z,75.70
2019-01-30T18:28:50.762Z,76.00
2019-01-30T18:31:20.554Z,76.30
2019-01-30T18:33:50.577Z,75.90
2019-01-30T18:36:20.248Z,76.00
2019-01-30T18:38:49.894Z,76.00
2019-01-30T18:41:19.589Z,76.40
2019-01-30T18:43:49.196Z,76.30
2019-01-30T18:46:18.818Z,76.50
2019-01-30T18:48:49.100Z,76.40
2019-01-30T18:51:19.820Z,76.80
2019-01-30T18:53:49.428Z,77.10
2019-01-30T18:56:19.212Z,77.30
2019-01-30T18:58:48.937Z,78.00
2019-01-30T19:01:18.745Z,77.90
2019-01-30T19:03:48.422Z,78.50
2019-01-30T19:06:18.117Z,78.40
2019-01-30T19:08:47.737Z,79.50
2019-01-30T19:11:17.435Z,80.20
2019-01-30T19:13:47.048Z,80.70
2019-01-30T19:16:16.672Z,80.20
2019-01-30T19:18:48.989Z,80.00
2019-01-30T19:21:17.788Z,80.40
2019-01-30T19:23:47.417Z,80.20
2019-01-30T19:26:17.033Z,80.10
2019-01-30T19:28:46.768Z,80.80
2019-01-30T19:31:16.383Z,80.00
2019-01-30T19:33:46.397Z,80.60
2019-01-30T19:36:16.074Z,80.90
2019-01-30T19:38:46.023Z,81.40
2019-01-30T19:41:15.641Z,81.50
2019-01-30T19:43:45.256Z,82.30
2019-01-30T19:46:15.167Z,83.20
2019-01-30T19:48:44.800Z,82.90
2019-01-30T19:51:14.434Z,83.10
2019-01-30T19:53:44.056Z,83.20
2019-01-30T19:56:13.665Z,83.90
2019-01-30T19:58:43.290Z,83.30
2019-01-30T20:01:12.901Z,83.20
2019-01-30T20:03:42.620Z,82.80
2019-01-30T20:06:13.125Z,83.30
2019-01-30T20:08:42.921Z,83.80
2019-01-30T20:11:12.702Z,83.90
2019-01-30T20:13:42.405Z,83.90
2019-01-30T20:16:12.312Z,83.60
2019-01-30T20:18:41.933Z,83.60
2019-01-30T20:21:11.649Z,83.30
2019-01-30T20:23:41.340Z,83.20
2019-01-30T20:26:11.189Z,83.10
2019-01-30T20:28:40.796Z,83.10
2019-01-30T20:31:10.473Z,83.10
2019-01-30T20:33:40.479Z,82.20
2019-01-30T20:36:10.251Z,82.50
2019-01-30T20:38:39.856Z,82.10
2019-01-30T20:41:09.557Z,82.20
2019-01-30T20:43:39.735Z,81.70
2019-01-30T20:46:09.661Z,81.70
2019-01-30T20:48:48.569Z,82.40
2019-01-30T20:51:10.624Z,81.60
2019-01-30T20:53:40.238Z,81.50
2019-01-30T20:56:09.944Z,81.40
2019-01-30T20:58:40.076Z,81.30
2019-01-30T21:01:09.849Z,81.30
2019-01-30T21:03:39.461Z,81.20
2019-01-30T21:06:09.161Z,81.10
2019-01-30T21:08:39.093Z,80.90
2019-01-30T21:11:08.714Z,80.70
2019-01-30T21:13:38.606Z,80.90
2019-01-30T21:16:08.305Z,81.00
2019-01-30T21:18:37.916Z,80.70
2019-01-30T21:21:07.641Z,80.70
2019-01-30T21:23:37.262Z,80.60
2019-01-30T21:26:06.880Z,80.20
2019-01-30T21:28:36.491Z,80.40
2019-01-30T21:31:06.239Z,81.20
2019-01-30T21:33:36.241Z,80.50
2019-01-30T21:36:06.053Z,80.30
2019-01-30T21:38:35.978Z,80.30
2019-01-30T21:41:05.591Z,80.60
2019-01-30T21:43:35.489Z,80.50
2019-01-30T21:46:05.516Z,80.10
2019-01-30T21:48:35.222Z,80.10
2019-01-30T21:51:05.300Z,80.00
2019-01-30T21:53:35.000Z,80.10
2019-01-30T21:56:05.504Z,80.10
2019-01-30T21:58:35.454Z,80.00
2019-01-30T22:01:05.508Z,80.00
2019-01-30T22:03:35.660Z,80.00
2019-01-30T22:06:05.662Z,80.10
2019-01-30T22:08:35.951Z,80.30
2019-01-30T22:11:05.757Z,80.30
2019-01-30T22:13:35.377Z,80.30
2019-01-30T22:16:05.796Z,80.00
2019-01-30T22:18:35.714Z,80.30
2019-01-30T22:21:05.485Z,80.00
2019-01-30T22:23:35.614Z,80.10
2019-01-30T22:26:05.314Z,80.40
2019-01-30T22:28:34.941Z,80.20
2019-01-30T22:31:04.699Z,80.30
2019-01-30T22:33:34.517Z,80.40
2019-01-30T22:36:04.405Z,80.30
2019-01-30T22:38:34.016Z,80.40
2019-01-30T22:41:03.696Z,80.30
2019-01-30T22:43:33.361Z,80.40
2019-01-30T22:46:03.359Z,80.40
2019-01-30T22:48:33.623Z,80.30
2019-01-30T22:51:03.243Z,80.30
2019-01-30T22:53:33.285Z,80.50
2019-01-30T22:56:02.901Z,80.10
2019-01-30T22:58:33.593Z,80.30
2019-01-30T23:01:31.985Z,80.30
2019-01-30T23:04:22.259Z,80.30
2019-01-30T23:07:22.777Z,80.10
2019-01-30T23:10:55.365Z,80.30
2019-01-30T23:13:45.450Z,80.30
2019-01-30T23:16:52.668Z,80.50
2019-01-30T23:19:40.012Z,80.60
2019-01-30T23:23:00.281Z,80.30
2019-01-30T23:25:55.968Z,80.60
2019-01-30T23:28:41.760Z,80.60
2019-01-30T23:31:42.919Z,80.40
2019-01-30T23:34:49.261Z,80.40
2019-01-30T23:37:47.481Z,80.90
2019-01-30T23:40:23.843Z,80.50
2019-01-30T23:43:15.535Z,80.60
2019-01-30T23:45:55.665Z,80.70
2019-01-30T23:48:56.018Z,80.20
2019-01-30T23:51:32.541Z,80.20
2019-01-30T23:54:22.356Z,80.10
2019-01-30T23:57:11.769Z,80.50
2019-01-30T23:59:58.188Z,80.40
